createdAt,value
2018-05-16T00:01:03.527Z,99.90
2018-05-16T00:03:33.895Z,99.90
2018-05-16T00:06:05.700Z,99.90
2018-05-16T00:08:36.281Z,99.90
2018-05-16T00:11:07.421Z,99.90
2018-05-16T00:13:38.555Z,99.90
2018-05-16T00:16:09.138Z,99.90
2018-05-16T00:18:43.595Z,99.90
2018-05-16T00:21:13.907Z,99.90
2018-05-16T00:23:44.291Z,99.70
2018-05-16T00:26:14.671Z,99.70
2018-05-16T00:28:45.051Z,99.90
2018-05-16T00:31:15.445Z,99.90
2018-05-16T00:33:46.580Z,99.90
2018-05-16T00:36:16.947Z,99.90
2018-05-16T00:38:47.358Z,99.60
2018-05-16T00:41:18.478Z,99.80
2018-05-16T00:43:48.845Z,99.80
2018-05-16T00:46:19.445Z,99.90
2018-05-16T00:48:50.572Z,99.90
2018-05-16T00:51:34.886Z,99.90
2018-05-16T00:54:05.260Z,99.90
2018-05-16T00:56:35.626Z,99.90
2018-05-16T00:59:06.241Z,99.90
2018-05-16T01:01:37.384Z,99.50
2018-05-16T01:06:53.497Z,99.90
2018-05-16T01:09:24.577Z,99.90
2018-05-16T01:11:56.994Z,99.90
2018-05-16T01:14:28.160Z,99.90
2018-05-16T01:16:59.306Z,99.90
2018-05-16T01:19:29.671Z,99.90
2018-05-16T01:22:21.486Z,99.90
2018-05-16T01:24:55.948Z,99.90
2018-05-16T01:27:26.259Z,99.90
2018-05-16T01:29:56.681Z,99.80
2018-05-16T01:32:27.047Z,99.50
2018-05-16T01:34:58.195Z,99.60
2018-05-16T01:37:29.345Z,99.90
2018-05-16T01:40:00.576Z,99.70
2018-05-16T01:42:31.602Z,99.90
2018-05-16T01:45:01.985Z,99.80
2018-05-16T01:47:32.353Z,99.70
2018-05-16T01:50:02.738Z,99.90
2018-05-16T01:52:33.142Z,99.90
2018-05-16T01:55:03.511Z,99.70
2018-05-16T01:57:39.011Z,99.80
2018-05-16T02:00:10.359Z,99.90
2018-05-16T02:02:41.486Z,99.90
2018-05-16T02:05:11.880Z,99.90
2018-05-16T02:07:42.193Z,99.50
2018-05-16T02:10:15.637Z,99.60
2018-05-16T02:12:46.789Z,99.90
2018-05-16T02:15:17.872Z,99.90
2018-05-16T02:17:52.347Z,99.90
2018-05-16T02:20:23.478Z,99.80
2018-05-16T02:22:54.590Z,99.80
2018-05-16T02:25:24.969Z,99.80
2018-05-16T02:27:56.110Z,99.80
2018-05-16T02:30:27.237Z,99.60
2018-05-16T02:32:57.634Z,99.60
2018-05-16T02:35:50.184Z,99.40
2018-05-16T02:38:20.869Z,99.40
2018-05-16T02:40:51.996Z,99.90
2018-05-16T02:43:23.144Z,99.90
2018-05-16T02:45:54.308Z,99.80
2018-05-16T02:48:24.686Z,99.80
2018-05-16T02:50:55.067Z,99.90
2018-05-16T02:53:25.465Z,99.80
2018-05-16T02:55:56.681Z,99.90
2018-05-16T02:58:27.054Z,99.90
2018-05-16T03:00:57.386Z,99.90
2018-05-16T03:03:27.767Z,99.90
2018-05-16T03:05:58.078Z,99.90
2018-05-16T03:08:28.474Z,99.90
2018-05-16T03:10:59.572Z,99.90
2018-05-16T03:13:29.944Z,99.90
2018-05-16T03:16:00.341Z,99.90
2018-05-16T03:18:32.182Z,99.90
2018-05-16T03:21:03.325Z,99.90
2018-05-16T03:23:33.732Z,99.80
2018-05-16T03:26:06.151Z,99.90
2018-05-16T03:28:37.279Z,99.70
2018-05-16T03:31:07.687Z,99.60
2018-05-16T03:33:38.062Z,99.90
2018-05-16T03:36:08.620Z,99.60
2018-05-16T03:38:39.010Z,99.60
2018-05-16T03:41:11.173Z,99.50
2018-05-16T03:43:43.337Z,99.40
2018-05-16T03:46:15.519Z,99.60
2018-05-16T03:48:45.878Z,99.50
2018-05-16T03:51:22.612Z,99.60
2018-05-16T03:53:53.746Z,99.40
2018-05-16T03:56:24.879Z,99.50
2018-05-16T03:59:50.035Z,99.50
2018-05-16T04:03:15.043Z,99.50
2018-05-16T04:05:45.433Z,99.50
2018-05-16T04:08:16.570Z,99.30
2018-05-16T04:10:46.939Z,99.30
2018-05-16T04:13:17.331Z,99.30
2018-05-16T04:15:48.473Z,99.50
2018-05-16T04:18:18.839Z,99.20
2018-05-16T04:20:49.931Z,99.30
2018-05-16T04:23:20.301Z,99.20
2018-05-16T04:25:50.675Z,99.20
2018-05-16T04:28:21.342Z,99.20
2018-05-16T04:30:52.475Z,98.80
2018-05-16T04:33:24.623Z,99.20
2018-05-16T04:35:55.026Z,98.90
2018-05-16T04:38:25.407Z,98.60
2018-05-16T04:40:56.552Z,98.50
2018-05-16T04:43:27.719Z,98.40
2018-05-16T04:45:58.086Z,98.40
2018-05-16T04:48:28.402Z,98.70
2018-05-16T04:50:59.462Z,98.50
2018-05-16T04:53:30.122Z,98.40
2018-05-16T04:56:01.257Z,98.60
2018-05-16T04:58:32.414Z,98.50
2018-05-16T05:01:03.571Z,98.50
2018-05-16T05:03:34.685Z,98.20
2018-05-16T05:06:05.856Z,98.50
2018-05-16T05:08:36.221Z,98.50
2018-05-16T05:11:06.589Z,98.20
2018-05-16T05:13:37.751Z,98.40
2018-05-16T05:16:08.123Z,98.40
2018-05-16T05:18:38.620Z,98.40
2018-05-16T05:21:08.845Z,98.30
2018-05-16T05:26:28.501Z,98.10
2018-05-16T05:28:59.640Z,98.30
2018-05-16T05:31:29.949Z,98.30
2018-05-16T05:34:00.347Z,98.10
2018-05-16T05:36:30.727Z,97.80
2018-05-16T05:39:01.866Z,97.80
2018-05-16T05:41:33.023Z,98.10
2018-05-16T05:44:04.149Z,98.00
2018-05-16T05:46:34.811Z,98.00
2018-05-16T05:49:05.230Z,98.20
2018-05-16T05:51:36.578Z,98.20
2018-05-16T05:54:07.709Z,98.10
2018-05-16T05:56:38.883Z,98.10
2018-05-16T05:59:09.253Z,98.00
2018-05-16T06:01:39.632Z,98.50
2018-05-16T06:04:10.246Z,97.90
2018-05-16T06:06:42.088Z,97.60
2018-05-16T06:09:12.450Z,97.60
2018-05-16T06:11:42.843Z,97.40
2018-05-16T06:14:13.497Z,97.30
2018-05-16T06:16:44.570Z,97.60
2018-05-16T06:19:14.958Z,97.50
2018-05-16T06:21:46.248Z,96.60
2018-05-16T06:24:16.542Z,96.50
2018-05-16T06:26:46.934Z,95.90
2018-05-16T06:29:18.272Z,96.40
2018-05-16T06:31:48.634Z,96.10
2018-05-16T06:34:19.794Z,94.60
2018-05-16T06:36:50.168Z,94.60
2018-05-16T06:39:20.526Z,95.20
2018-05-16T06:41:50.894Z,95.40
2018-05-16T06:44:25.366Z,94.80
2018-05-16T06:46:56.525Z,94.70
2018-05-16T06:49:27.657Z,94.10
2018-05-16T06:51:58.803Z,94.70
2018-05-16T06:54:29.956Z,94.70
2018-05-16T06:57:01.084Z,93.70
2018-05-16T06:59:31.450Z,93.70
2018-05-16T07:02:01.885Z,93.60
2018-05-16T07:04:32.273Z,93.50
2018-05-16T07:07:04.639Z,93.20
2018-05-16T07:09:35.039Z,93.20
2018-05-16T07:12:08.004Z,93.50
2018-05-16T07:14:45.555Z,93.50
2018-05-16T07:17:16.697Z,93.10
2018-05-16T07:19:47.778Z,92.40
2018-05-16T07:22:18.157Z,92.30
2018-05-16T07:24:49.559Z,93.10
2018-05-16T07:27:20.648Z,92.90
2018-05-16T07:29:51.042Z,92.50
2018-05-16T07:32:21.383Z,92.30
2018-05-16T07:35:12.911Z,92.60
2018-05-16T07:37:43.278Z,92.60
2018-05-16T07:40:14.600Z,92.40
2018-05-16T07:42:44.946Z,92.40
2018-05-16T07:45:15.312Z,92.60
2018-05-16T07:47:47.736Z,91.70
2018-05-16T07:50:18.903Z,92.80
2018-05-16T07:52:49.265Z,92.80
2018-05-16T07:55:19.642Z,92.10
2018-05-16T07:57:50.111Z,92.30
2018-05-16T08:00:20.399Z,92.40
2018-05-16T08:02:50.771Z,92.50
2018-05-16T08:05:21.363Z,93.00
2018-05-16T08:07:51.746Z,92.80
2018-05-16T08:10:22.128Z,92.90
2018-05-16T08:12:52.512Z,92.70
2018-05-16T08:15:22.885Z,92.60
2018-05-16T08:17:55.294Z,92.20
2018-05-16T08:20:25.879Z,91.90
2018-05-16T08:22:56.192Z,91.90
2018-05-16T08:25:26.506Z,92.30
2018-05-16T08:27:57.101Z,91.70
2018-05-16T08:30:27.469Z,91.80
2018-05-16T08:32:57.845Z,92.60
2018-05-16T08:35:48.620Z,92.10
2018-05-16T08:38:18.996Z,91.30
2018-05-16T08:40:49.371Z,91.70
2018-05-16T08:43:19.714Z,91.50
2018-05-16T08:45:50.096Z,91.00
2018-05-16T08:48:21.240Z,92.10
2018-05-16T08:50:51.630Z,91.80
2018-05-16T08:53:22.006Z,91.60
2018-05-16T08:55:52.369Z,92.00
2018-05-16T08:58:28.898Z,91.80
2018-05-16T09:00:59.272Z,91.80
2018-05-16T09:03:29.642Z,91.70
2018-05-16T09:06:00.033Z,90.80
2018-05-16T09:08:30.413Z,90.90
2018-05-16T09:11:00.783Z,91.10
2018-05-16T09:13:31.178Z,91.10
2018-05-16T09:16:01.552Z,91.40
2018-05-16T09:18:31.910Z,90.90
2018-05-16T09:21:02.297Z,91.40
2018-05-16T09:23:32.660Z,91.80
2018-05-16T09:26:03.025Z,90.70
2018-05-16T09:28:52.512Z,91.30
2018-05-16T09:31:22.896Z,91.20
2018-05-16T09:33:53.265Z,91.00
2018-05-16T09:36:23.656Z,90.10
2018-05-16T09:38:54.023Z,90.40
2018-05-16T09:41:25.414Z,89.90
2018-05-16T09:43:57.686Z,90.20
2018-05-16T09:49:17.739Z,90.00
2018-05-16T09:52:07.482Z,88.40
2018-05-16T09:54:37.870Z,89.10
2018-05-16T09:57:08.235Z,87.70
2018-05-16T09:59:38.600Z,88.20
2018-05-16T10:02:08.999Z,88.70
2018-05-16T10:04:39.370Z,90.10
2018-05-16T10:07:09.736Z,90.20
2018-05-16T10:09:40.096Z,90.30
2018-05-16T10:12:10.439Z,90.40
2018-05-16T10:14:40.799Z,90.70
2018-05-16T10:17:11.966Z,90.20
2018-05-16T10:19:42.331Z,90.20
2018-05-16T10:22:12.712Z,89.60
2018-05-16T10:24:44.118Z,89.40
2018-05-16T10:27:14.478Z,89.40
2018-05-16T10:29:45.615Z,88.70
2018-05-16T10:32:15.950Z,88.70
2018-05-16T10:34:47.059Z,90.40
2018-05-16T10:37:17.435Z,87.00
2018-05-16T10:39:47.834Z,87.90
2018-05-16T10:42:18.974Z,85.40
2018-05-16T10:44:49.345Z,85.40
2018-05-16T10:47:21.784Z,87.10
2018-05-16T10:49:52.159Z,87.90
2018-05-16T10:52:25.595Z,86.90
2018-05-16T10:54:55.969Z,85.60
2018-05-16T10:57:28.343Z,86.00
2018-05-16T10:59:58.696Z,85.10
2018-05-16T11:02:29.097Z,84.90
2018-05-16T11:05:03.507Z,83.60
2018-05-16T11:07:33.877Z,84.10
2018-05-16T11:10:04.269Z,83.70
2018-05-16T11:12:34.649Z,81.80
2018-05-16T11:15:05.016Z,84.30
2018-05-16T11:17:35.411Z,83.10
2018-05-16T11:20:06.540Z,81.70
2018-05-16T11:22:36.902Z,81.70
2018-05-16T11:25:07.296Z,81.80
2018-05-16T11:27:37.659Z,81.80
2018-05-16T11:30:08.026Z,81.20
2018-05-16T11:32:38.447Z,82.80
2018-05-16T11:35:08.812Z,83.30
2018-05-16T11:37:39.951Z,80.80
2018-05-16T11:40:11.062Z,82.20
2018-05-16T11:42:41.428Z,82.20
2018-05-16T11:45:12.554Z,83.10
2018-05-16T11:47:43.139Z,83.00
2018-05-16T11:50:13.701Z,79.90
2018-05-16T11:52:44.066Z,81.20
2018-05-16T11:55:15.175Z,80.10
2018-05-16T11:57:45.544Z,78.50
2018-05-16T12:00:15.911Z,79.80
2018-05-16T12:02:46.337Z,79.00
2018-05-16T12:05:16.860Z,81.20
2018-05-16T12:07:51.314Z,80.40
2018-05-16T12:10:21.703Z,81.80
2018-05-16T12:13:13.496Z,82.40
2018-05-16T12:15:43.890Z,79.70
2018-05-16T12:18:14.253Z,79.30
2018-05-16T12:20:45.386Z,81.30
2018-05-16T12:23:16.549Z,78.20
2018-05-16T12:25:46.993Z,78.00
2018-05-16T12:28:17.362Z,77.30
2018-05-16T12:30:47.758Z,79.50
2018-05-16T12:33:39.275Z,78.40
2018-05-16T12:36:13.762Z,78.40
2018-05-16T12:38:44.125Z,78.70
2018-05-16T12:41:33.615Z,77.30
2018-05-16T12:44:03.982Z,77.30
2018-05-16T12:46:35.171Z,78.30
2018-05-16T12:49:06.234Z,77.00
2018-05-16T12:51:36.601Z,76.80
2018-05-16T12:54:06.969Z,73.30
2018-05-16T12:56:37.587Z,74.60
2018-05-16T12:59:13.070Z,77.90
2018-05-16T13:01:43.484Z,77.30
2018-05-16T13:04:13.835Z,77.70
2018-05-16T13:06:44.208Z,78.50
2018-05-16T13:09:14.611Z,79.60
2018-05-16T13:11:45.174Z,78.10
2018-05-16T13:14:35.711Z,76.90
2018-05-16T13:17:06.072Z,76.90
2018-05-16T13:19:36.391Z,79.00
2018-05-16T13:22:06.795Z,78.90
2018-05-16T13:24:37.925Z,78.40
2018-05-16T13:27:08.304Z,77.90
2018-05-16T13:29:38.695Z,79.00
2018-05-16T13:32:09.072Z,77.50
2018-05-16T13:35:00.639Z,77.10
2018-05-16T13:37:31.059Z,77.00
2018-05-16T13:40:01.374Z,79.70
2018-05-16T13:42:31.757Z,80.40
2018-05-16T13:45:02.141Z,78.60
2018-05-16T13:47:32.511Z,77.80
2018-05-16T13:50:02.991Z,78.90
2018-05-16T13:52:34.029Z,77.70
2018-05-16T13:55:04.402Z,77.10
2018-05-16T13:57:34.741Z,76.20
2018-05-16T14:03:18.390Z,77.30
2018-05-16T14:05:48.694Z,76.70
2018-05-16T14:08:19.837Z,74.00
2018-05-16T14:10:50.992Z,75.20
2018-05-16T14:13:21.552Z,75.10
2018-05-16T14:15:51.918Z,75.60
2018-05-16T14:18:22.249Z,75.20
2018-05-16T14:20:53.385Z,75.70
2018-05-16T14:23:23.941Z,75.60
2018-05-16T14:25:55.301Z,75.00
2018-05-16T14:28:25.660Z,75.00
2018-05-16T14:30:59.097Z,77.40
2018-05-16T14:33:30.204Z,81.00
2018-05-16T14:36:01.655Z,80.60
2018-05-16T14:38:31.968Z,93.00
2018-05-16T14:41:09.670Z,95.40
2018-05-16T14:44:01.138Z,98.50
2018-05-16T14:46:32.284Z,99.90
2018-05-16T14:49:02.648Z,99.90
2018-05-16T14:51:33.017Z,99.90
2018-05-16T14:54:03.349Z,99.90
2018-05-16T14:56:33.714Z,99.90
2018-05-16T14:59:04.082Z,99.90
2018-05-16T15:01:34.477Z,99.90
2018-05-16T15:04:07.919Z,99.90
2018-05-16T15:06:38.289Z,99.90
2018-05-16T15:09:08.704Z,99.90
2018-05-16T15:11:39.073Z,99.90
2018-05-16T15:14:10.661Z,99.90
2018-05-16T15:16:41.058Z,99.90
2018-05-16T15:19:11.430Z,99.90
2018-05-16T15:21:42.561Z,99.90
2018-05-16T15:24:13.669Z,99.90
2018-05-16T15:26:48.117Z,99.90
2018-05-16T15:29:18.490Z,99.90
2018-05-16T15:31:49.092Z,99.90
2018-05-16T15:34:20.221Z,99.70
2018-05-16T15:36:50.585Z,99.70
2018-05-16T15:39:20.976Z,99.10
2018-05-16T15:41:51.360Z,98.80
2018-05-16T15:44:21.721Z,99.20
2018-05-16T15:46:54.154Z,98.60
2018-05-16T15:49:24.541Z,97.00
2018-05-16T15:51:56.163Z,98.30
2018-05-16T15:54:26.500Z,98.20
2018-05-16T15:56:56.866Z,96.40
2018-05-16T15:59:27.985Z,95.70
2018-05-16T16:01:58.374Z,95.80
2018-05-16T16:04:29.711Z,96.90
2018-05-16T16:07:05.281Z,96.60
2018-05-16T16:09:35.653Z,95.80
2018-05-16T16:12:06.726Z,95.70
2018-05-16T16:14:41.218Z,95.70
2018-05-16T16:17:12.360Z,95.40
2018-05-16T16:19:42.672Z,95.30
2018-05-16T16:22:13.833Z,95.60
2018-05-16T16:24:44.205Z,95.50
2018-05-16T16:27:16.620Z,95.60
2018-05-16T16:29:47.771Z,93.90
2018-05-16T16:32:18.171Z,93.80
2018-05-16T16:34:48.534Z,95.30
2018-05-16T16:37:19.686Z,94.50
2018-05-16T16:39:50.042Z,94.50
2018-05-16T16:42:39.806Z,94.60
2018-05-16T16:45:12.216Z,93.60
2018-05-16T16:47:42.572Z,94.00
2018-05-16T16:50:13.007Z,94.20
2018-05-16T16:52:43.284Z,94.80
2018-05-16T16:55:13.649Z,94.80
2018-05-16T16:57:45.490Z,94.00
2018-05-16T17:00:15.863Z,94.20
2018-05-16T17:02:46.230Z,94.30
2018-05-16T17:05:16.626Z,94.20
2018-05-16T17:07:47.012Z,94.50
2018-05-16T17:10:18.852Z,94.10
2018-05-16T17:12:49.246Z,93.90
2018-05-16T17:15:39.745Z,93.60
2018-05-16T17:18:17.306Z,93.60
2018-05-16T17:20:47.672Z,94.20
2018-05-16T17:23:17.988Z,93.70
2018-05-16T17:25:48.322Z,93.20
2018-05-16T17:28:39.076Z,94.20
2018-05-16T17:31:09.468Z,93.50
2018-05-16T17:33:39.837Z,93.40
2018-05-16T17:36:10.205Z,93.60
2018-05-16T17:39:02.771Z,93.30
2018-05-16T17:41:33.132Z,93.30
2018-05-16T17:44:04.263Z,92.80
2018-05-16T17:46:35.428Z,93.10
2018-05-16T17:49:05.746Z,93.10
2018-05-16T17:51:36.065Z,94.40
2018-05-16T17:54:07.223Z,94.20
2018-05-16T17:56:37.596Z,94.20
2018-05-16T17:59:07.961Z,93.60
2018-05-16T18:01:39.118Z,94.60
2018-05-16T18:04:09.485Z,94.50
2018-05-16T18:06:42.916Z,94.10
2018-05-16T18:09:13.504Z,94.00
2018-05-16T18:11:46.937Z,94.90
2018-05-16T18:17:28.910Z,94.10
2018-05-16T18:20:00.108Z,94.30
2018-05-16T18:22:30.474Z,93.50
2018-05-16T18:25:01.547Z,93.90
2018-05-16T18:27:51.302Z,94.40
2018-05-16T18:30:21.674Z,95.00
2018-05-16T18:32:52.036Z,94.90
2018-05-16T18:35:22.421Z,94.60
2018-05-16T18:37:52.776Z,94.60
2018-05-16T18:40:23.907Z,95.10
2018-05-16T18:42:54.237Z,95.10
2018-05-16T18:45:24.607Z,95.00
2018-05-16T18:47:55.172Z,95.50
2018-05-16T18:50:26.559Z,94.90
2018-05-16T18:52:56.942Z,94.50
2018-05-16T18:55:27.303Z,94.80
2018-05-16T18:57:58.472Z,94.50
2018-05-16T19:00:29.502Z,94.50
2018-05-16T19:03:00.634Z,95.40
2018-05-16T19:05:31.024Z,95.40
2018-05-16T19:08:01.409Z,95.20
2018-05-16T19:10:31.788Z,94.90
2018-05-16T19:13:02.187Z,95.50
2018-05-16T19:15:39.828Z,95.70
2018-05-16T19:18:11.003Z,95.40
2018-05-16T19:20:41.408Z,95.10
2018-05-16T19:23:12.480Z,95.20
2018-05-16T19:25:42.828Z,95.20
2018-05-16T19:28:13.139Z,95.60
2018-05-16T19:30:43.449Z,95.10
2018-05-16T19:33:13.863Z,94.90
2018-05-16T19:35:44.245Z,95.00
2018-05-16T19:38:14.618Z,94.90
2018-05-16T19:40:45.014Z,95.20
2018-05-16T19:43:15.390Z,95.50
2018-05-16T19:45:47.805Z,95.30
2018-05-16T19:48:18.204Z,94.70
2018-05-16T19:50:53.679Z,95.40
2018-05-16T19:53:24.066Z,94.80
2018-05-16T19:55:54.435Z,94.60
2018-05-16T19:58:24.813Z,95.00
2018-05-16T20:00:55.229Z,95.20
2018-05-16T20:03:25.614Z,94.80
2018-05-16T20:05:55.920Z,94.60
2018-05-16T20:08:26.318Z,94.80
2018-05-16T20:10:56.641Z,94.90
2018-05-16T20:13:27.007Z,94.40
2018-05-16T20:15:58.503Z,94.80
2018-05-16T20:18:28.873Z,95.20
2018-05-16T20:20:59.197Z,94.70
2018-05-16T20:23:29.595Z,95.20
2018-05-16T20:25:59.965Z,95.20
2018-05-16T20:28:30.342Z,94.60
2018-05-16T20:31:00.735Z,95.20
2018-05-16T20:33:31.767Z,94.80
2018-05-16T20:36:02.140Z,95.30
2018-05-16T20:38:32.532Z,94.80
2018-05-16T20:41:02.896Z,95.40
2018-05-16T20:43:33.261Z,95.00
2018-05-16T20:46:07.167Z,95.10
2018-05-16T20:48:37.548Z,94.80
2018-05-16T20:51:07.926Z,94.80
2018-05-16T20:53:38.319Z,94.60
2018-05-16T20:56:08.694Z,94.70
2018-05-16T20:58:39.069Z,93.90
2018-05-16T21:01:09.469Z,94.50
2018-05-16T21:03:40.595Z,94.30
2018-05-16T21:06:10.963Z,94.20
2018-05-16T21:08:41.381Z,95.00
2018-05-16T21:11:11.769Z,94.70
2018-05-16T21:13:42.135Z,94.60
2018-05-16T21:16:12.523Z,94.40
2018-05-16T21:18:42.899Z,94.30
2018-05-16T21:21:13.215Z,94.40
2018-05-16T21:23:43.551Z,94.70
2018-05-16T21:26:15.971Z,95.20
2018-05-16T21:28:46.378Z,94.90
2018-05-16T21:31:17.488Z,94.40
2018-05-16T21:33:47.856Z,94.30
2018-05-16T21:36:18.240Z,94.60
2018-05-16T21:38:48.618Z,95.00
2018-05-16T21:41:18.995Z,94.90
2018-05-16T21:43:49.369Z,95.00
2018-05-16T21:46:19.749Z,95.40
2018-05-16T21:48:50.122Z,97.20
2018-05-16T21:51:20.781Z,93.80
2018-05-16T21:53:51.898Z,94.70
2018-05-16T21:56:22.264Z,94.70
2018-05-16T21:58:52.650Z,94.90
2018-05-16T22:01:23.066Z,95.00
2018-05-16T22:03:53.452Z,94.60
2018-05-16T22:06:23.837Z,94.70
2018-05-16T22:08:54.236Z,94.60
2018-05-16T22:11:24.554Z,94.20
2018-05-16T22:13:54.921Z,94.60
2018-05-16T22:16:25.322Z,94.70
2018-05-16T22:18:56.459Z,94.90
2018-05-16T22:21:26.834Z,94.90
2018-05-16T22:23:57.995Z,95.40
2018-05-16T22:26:28.370Z,95.40
2018-05-16T22:28:58.756Z,94.80
2018-05-16T22:31:47.111Z,94.70
2018-05-16T22:37:39.330Z,95.30
2018-05-16T22:40:28.131Z,95.40
2018-05-16T22:43:04.065Z,95.40
2018-05-16T22:45:40.214Z,95.40
2018-05-16T22:48:10.619Z,95.20
2018-05-16T22:50:41.000Z,95.10
2018-05-16T22:53:14.430Z,95.40
2018-05-16T22:55:44.835Z,95.30
2018-05-16T22:58:15.142Z,95.30
2018-05-16T23:00:46.537Z,95.30
2018-05-16T23:03:16.937Z,95.70
2018-05-16T23:05:49.365Z,95.20
2018-05-16T23:08:19.675Z,95.80
2018-05-16T23:10:50.850Z,95.40
2018-05-16T23:13:21.229Z,95.40
2018-05-16T23:15:51.606Z,95.60
2018-05-16T23:18:21.985Z,95.40
2018-05-16T23:20:52.360Z,95.70
2018-05-16T23:23:22.933Z,95.50
2018-05-16T23:25:53.311Z,95.40
2018-05-16T23:28:23.871Z,95.70
2018-05-16T23:31:12.598Z,95.30
2018-05-16T23:33:42.959Z,95.30
2018-05-16T23:36:15.384Z,95.20
2018-05-16T23:38:45.798Z,95.10
2018-05-16T23:41:16.941Z,94.40
2018-05-16T23:43:48.084Z,94.80
2018-05-16T23:46:18.478Z,94.40
2018-05-16T23:48:48.853Z,94.40
2018-05-16T23:51:19.996Z,94.40
2018-05-16T23:53:50.396Z,94.40
2018-05-16T23:56:20.764Z,94.30
2018-05-16T23:58:51.131Z,94.30
